sensor_id;sensor_type;location;lat;lon;timestamp;P1;durP1;ratioP1;P2;durP2;ratioP2
20138;SDS011;10230;51.502;10.800;2023-04-24T00:02:23;0.60;;;0.60;;
20138;SDS011;10230;51.502;10.800;2023-04-24T00:04:49;0.90;;;0.60;;
20138;SDS011;10230;51.502;10.800;2023-04-24T00:07:15;0.50;;;0.50;;
20138;SDS011;10230;51.502;10.800;2023-04-24T00:09:45;1.23;;;0.60;;
20138;SDS011;10230;51.502;10.800;2023-04-24T00:12:11;1.00;;;0.50;;
20138;SDS011;10230;51.502;10.800;2023-04-24T00:14:37;0.93;;;0.67;;
20138;SDS011;10230;51.502;10.800;2023-04-24T00:17:03;0.40;;;0.40;;
20138;SDS011;10230;51.502;10.800;2023-04-24T00:19:29;0.70;;;0.50;;
20138;SDS011;10230;51.502;10.800;2023-04-24T00:21:55;1.30;;;0.50;;
20138;SDS011;10230;51.502;10.800;2023-04-24T00:24:21;0.50;;;0.50;;
20138;SDS011;10230;51.502;10.800;2023-04-24T00:26:47;0.50;;;0.40;;
20138;SDS011;10230;51.502;10.800;2023-04-24T00:29:13;0.67;;;0.40;;
20138;SDS011;10230;51.502;10.800;2023-04-24T00:31:39;0.70;;;0.50;;
20138;SDS011;10230;51.502;10.800;2023-04-24T00:34:05;1.53;;;0.50;;
20138;SDS011;10230;51.502;10.800;2023-04-24T00:36:32;2.47;;;0.90;;
20138;SDS011;10230;51.502;10.800;2023-04-24T00:38:58;0.60;;;0.50;;
20138;SDS011;10230;51.502;10.800;2023-04-24T00:41:25;0.60;;;0.60;;
20138;SDS011;10230;51.502;10.800;2023-04-24T00:43:51;0.83;;;0.50;;
20138;SDS011;10230;51.502;10.800;2023-04-24T00:46:17;1.23;;;0.60;;
20138;SDS011;10230;51.502;10.800;2023-04-24T00:48:44;1.13;;;0.60;;
20138;SDS011;10230;51.502;10.800;2023-04-24T00:51:10;0.83;;;0.53;;
20138;SDS011;10230;51.502;10.800;2023-04-24T00:53:36;4.87;;;0.40;;
20138;SDS011;10230;51.502;10.800;2023-04-24T00:56:02;1.20;;;0.40;;
20138;SDS011;10230;51.502;10.800;2023-04-24T00:58:28;0.93;;;0.80;;
20138;SDS011;10230;51.502;10.800;2023-04-24T01:00:56;0.60;;;0.40;;
20138;SDS011;10230;51.502;10.800;2023-04-24T01:03:24;0.70;;;0.43;;
20138;SDS011;10230;51.502;10.800;2023-04-24T01:05:51;1.63;;;0.50;;
20138;SDS011;10230;51.502;10.800;2023-04-24T01:08:17;0.63;;;0.50;;
20138;SDS011;10230;51.502;10.800;2023-04-24T01:10:43;0.63;;;0.50;;
20138;SDS011;10230;51.502;10.800;2023-04-24T01:13:11;0.70;;;0.47;;
20138;SDS011;10230;51.502;10.800;2023-04-24T01:15:37;1.00;;;0.47;;
20138;SDS011;10230;51.502;10.800;2023-04-24T01:18:03;0.60;;;0.30;;
20138;SDS011;10230;51.502;10.800;2023-04-24T01:20:29;0.67;;;0.57;;
20138;SDS011;10230;51.502;10.800;2023-04-24T01:22:56;0.77;;;0.40;;
20138;SDS011;10230;51.502;10.800;2023-04-24T01:25:23;0.50;;;0.40;;
20138;SDS011;10230;51.502;10.800;2023-04-24T01:27:49;1.80;;;0.83;;
20138;SDS011;10230;51.502;10.800;2023-04-24T01:30:16;0.40;;;0.40;;
20138;SDS011;10230;51.502;10.800;2023-04-24T01:32:42;1.33;;;0.47;;
20138;SDS011;10230;51.502;10.800;2023-04-24T01:35:09;1.37;;;0.57;;
20138;SDS011;10230;51.502;10.800;2023-04-24T01:37:35;0.77;;;0.60;;
20138;SDS011;10230;51.502;10.800;2023-04-24T01:40:05;1.90;;;0.60;;
20138;SDS011;10230;51.502;10.800;2023-04-24T01:42:32;1.03;;;0.40;;
20138;SDS011;10230;51.502;10.800;2023-04-24T01:44:58;0.67;;;0.60;;
20138;SDS011;10230;51.502;10.800;2023-04-24T01:47:24;0.50;;;0.50;;
20138;SDS011;10230;51.502;10.800;2023-04-24T01:49:51;0.60;;;0.37;;
20138;SDS011;10230;51.502;10.800;2023-04-24T01:52:17;0.43;;;0.30;;
20138;SDS011;10230;51.502;10.800;2023-04-24T01:54:44;0.53;;;0.53;;
20138;SDS011;10230;51.502;10.800;2023-04-24T01:57:10;2.90;;;0.60;;
20138;SDS011;10230;51.502;10.800;2023-04-24T01:59:36;1.27;;;0.30;;
20138;SDS011;10230;51.502;10.800;2023-04-24T02:02:02;0.50;;;0.50;;
20138;SDS011;10230;51.502;10.800;2023-04-24T02:04:29;1.23;;;0.53;;
20138;SDS011;10230;51.502;10.800;2023-04-24T02:06:55;1.30;;;0.70;;
20138;SDS011;10230;51.502;10.800;2023-04-24T02:09:21;1.37;;;0.40;;
20138;SDS011;10230;51.502;10.800;2023-04-24T02:11:47;0.87;;;0.70;;
20138;SDS011;10230;51.502;10.800;2023-04-24T02:14:13;1.47;;;0.50;;
20138;SDS011;10230;51.502;10.800;2023-04-24T02:16:39;0.40;;;0.40;;
20138;SDS011;10230;51.502;10.800;2023-04-24T02:19:05;3.80;;;0.70;;
20138;SDS011;10230;51.502;10.800;2023-04-24T02:21:31;0.50;;;0.40;;
20138;SDS011;10230;51.502;10.800;2023-04-24T02:23:57;1.07;;;0.87;;
20138;SDS011;10230;51.502;10.800;2023-04-24T02:26:24;1.77;;;0.57;;
20138;SDS011;10230;51.502;10.800;2023-04-24T02:28:50;0.60;;;0.50;;
20138;SDS011;10230;51.502;10.800;2023-04-24T02:31:16;0.73;;;0.50;;
20138;SDS011;10230;51.502;10.800;2023-04-24T02:33:42;0.60;;;0.43;;
20138;SDS011;10230;51.502;10.800;2023-04-24T02:36:08;0.80;;;0.60;;
20138;SDS011;10230;51.502;10.800;2023-04-24T02:38:34;0.67;;;0.60;;
20138;SDS011;10230;51.502;10.800;2023-04-24T02:41:00;1.80;;;0.60;;
20138;SDS011;10230;51.502;10.800;2023-04-24T02:43:27;1.07;;;0.70;;
20138;SDS011;10230;51.502;10.800;2023-04-24T02:45:53;1.53;;;1.37;;
20138;SDS011;10230;51.502;10.800;2023-04-24T02:48:19;0.63;;;0.63;;
20138;SDS011;10230;51.502;10.800;2023-04-24T02:50:46;1.10;;;0.90;;
20138;SDS011;10230;51.502;10.800;2023-04-24T02:53:12;1.53;;;0.73;;
20138;SDS011;10230;51.502;10.800;2023-04-24T02:55:38;0.77;;;0.60;;
20138;SDS011;10230;51.502;10.800;2023-04-24T02:58:04;1.20;;;0.80;;
20138;SDS011;10230;51.502;10.800;2023-04-24T03:00:31;2.20;;;0.67;;
20138;SDS011;10230;51.502;10.800;2023-04-24T03:02:57;1.20;;;0.77;;
20138;SDS011;10230;51.502;10.800;2023-04-24T03:05:23;0.87;;;0.63;;
20138;SDS011;10230;51.502;10.800;2023-04-24T03:07:49;0.50;;;0.50;;
20138;SDS011;10230;51.502;10.800;2023-04-24T03:10:17;1.00;;;0.73;;
20138;SDS011;10230;51.502;10.800;2023-04-24T03:12:43;1.20;;;0.70;;
20138;SDS011;10230;51.502;10.800;2023-04-24T03:15:09;1.50;;;1.10;;
20138;SDS011;10230;51.502;10.800;2023-04-24T03:17:35;1.17;;;0.80;;
20138;SDS011;10230;51.502;10.800;2023-04-24T03:20:02;1.33;;;0.80;;
20138;SDS011;10230;51.502;10.800;2023-04-24T03:22:30;0.70;;;0.70;;
20138;SDS011;10230;51.502;10.800;2023-04-24T03:24:57;0.90;;;0.57;;
20138;SDS011;10230;51.502;10.800;2023-04-24T03:27:26;1.67;;;0.50;;
20138;SDS011;10230;51.502;10.800;2023-04-24T03:29:52;0.63;;;0.57;;
20138;SDS011;10230;51.502;10.800;2023-04-24T03:32:23;2.67;;;0.67;;
20138;SDS011;10230;51.502;10.800;2023-04-24T03:34:49;0.77;;;0.70;;
20138;SDS011;10230;51.502;10.800;2023-04-24T03:37:15;3.03;;;0.60;;
20138;SDS011;10230;51.502;10.800;2023-04-24T03:39:42;1.53;;;0.90;;
20138;SDS011;10230;51.502;10.800;2023-04-24T03:42:08;0.67;;;0.60;;
20138;SDS011;10230;51.502;10.800;2023-04-24T03:44:34;0.87;;;0.70;;
20138;SDS011;10230;51.502;10.800;2023-04-24T03:47:00;1.50;;;0.87;;
20138;SDS011;10230;51.502;10.800;2023-04-24T03:49:26;3.10;;;0.90;;
20138;SDS011;10230;51.502;10.800;2023-04-24T03:51:52;1.53;;;1.00;;
20138;SDS011;10230;51.502;10.800;2023-04-24T03:54:18;4.13;;;1.77;;
20138;SDS011;10230;51.502;10.800;2023-04-24T03:56:45;1.60;;;1.20;;
20138;SDS011;10230;51.502;10.800;2023-04-24T03:59:11;5.37;;;2.37;;
20138;SDS011;10230;51.502;10.800;2023-04-24T04:01:38;2.90;;;1.50;;
20138;SDS011;10230;51.502;10.800;2023-04-24T04:04:05;6.57;;;3.03;;
20138;SDS011;10230;51.502;10.800;2023-04-24T04:06:31;2.40;;;1.17;;
20138;SDS011;10230;51.502;10.800;2023-04-24T04:08:57;3.67;;;1.90;;
20138;SDS011;10230;51.502;10.800;2023-04-24T04:11:23;2.00;;;1.80;;
20138;SDS011;10230;51.502;10.800;2023-04-24T04:13:49;4.00;;;1.77;;
20138;SDS011;10230;51.502;10.800;2023-04-24T04:16:15;2.63;;;1.20;;
20138;SDS011;10230;51.502;10.800;2023-04-24T04:18:42;1.73;;;1.30;;
20138;SDS011;10230;51.502;10.800;2023-04-24T04:21:08;2.80;;;1.10;;
20138;SDS011;10230;51.502;10.800;2023-04-24T04:23:34;2.47;;;1.30;;
20138;SDS011;10230;51.502;10.800;2023-04-24T04:26:01;2.20;;;1.10;;
20138;SDS011;10230;51.502;10.800;2023-04-24T04:28:29;2.50;;;1.37;;
20138;SDS011;10230;51.502;10.800;2023-04-24T04:30:58;1.90;;;1.10;;
20138;SDS011;10230;51.502;10.800;2023-04-24T04:33:24;3.60;;;1.50;;
20138;SDS011;10230;51.502;10.800;2023-04-24T04:35:51;2.43;;;1.60;;
20138;SDS011;10230;51.502;10.800;2023-04-24T04:38:17;4.27;;;1.67;;
20138;SDS011;10230;51.502;10.800;2023-04-24T04:40:43;3.63;;;1.30;;
20138;SDS011;10230;51.502;10.800;2023-04-24T04:43:10;2.30;;;1.60;;
20138;SDS011;10230;51.502;10.800;2023-04-24T04:45:39;2.80;;;1.10;;
20138;SDS011;10230;51.502;10.800;2023-04-24T04:48:06;2.43;;;1.40;;
20138;SDS011;10230;51.502;10.800;2023-04-24T04:50:34;1.20;;;1.07;;
20138;SDS011;10230;51.502;10.800;2023-04-24T04:53:00;1.13;;;0.90;;
20138;SDS011;10230;51.502;10.800;2023-04-24T04:55:26;2.23;;;1.20;;
20138;SDS011;10230;51.502;10.800;2023-04-24T04:57:52;3.90;;;1.93;;
20138;SDS011;10230;51.502;10.800;2023-04-24T05:00:18;2.90;;;1.57;;
20138;SDS011;10230;51.502;10.800;2023-04-24T05:02:44;4.93;;;1.60;;
20138;SDS011;10230;51.502;10.800;2023-04-24T05:05:10;4.80;;;2.40;;
20138;SDS011;10230;51.502;10.800;2023-04-24T05:07:36;4.60;;;1.83;;
20138;SDS011;10230;51.502;10.800;2023-04-24T05:10:02;1.63;;;1.03;;
20138;SDS011;10230;51.502;10.800;2023-04-24T05:12:28;1.40;;;1.07;;
20138;SDS011;10230;51.502;10.800;2023-04-24T05:14:54;3.80;;;2.00;;
20138;SDS011;10230;51.502;10.800;2023-04-24T05:17:21;4.23;;;2.00;;
20138;SDS011;10230;51.502;10.800;2023-04-24T05:19:47;3.97;;;1.87;;
20138;SDS011;10230;51.502;10.800;2023-04-24T05:22:13;3.27;;;1.40;;
20138;SDS011;10230;51.502;10.800;2023-04-24T05:24:39;3.73;;;1.10;;
20138;SDS011;10230;51.502;10.800;2023-04-24T05:27:05;4.23;;;2.03;;
20138;SDS011;10230;51.502;10.800;2023-04-24T05:29:32;4.17;;;1.70;;
20138;SDS011;10230;51.502;10.800;2023-04-24T05:31:58;3.37;;;1.23;;
20138;SDS011;10230;51.502;10.800;2023-04-24T05:34:24;1.23;;;0.90;;
20138;SDS011;10230;51.502;10.800;2023-04-24T05:36:50;1.37;;;0.93;;
20138;SDS011;10230;51.502;10.800;2023-04-24T05:39:16;1.53;;;1.03;;
20138;SDS011;10230;51.502;10.800;2023-04-24T05:41:43;2.73;;;0.83;;
20138;SDS011;10230;51.502;10.800;2023-04-24T05:44:09;0.90;;;0.63;;
20138;SDS011;10230;51.502;10.800;2023-04-24T05:46:35;4.53;;;1.50;;
20138;SDS011;10230;51.502;10.800;2023-04-24T05:49:01;3.23;;;2.03;;
20138;SDS011;10230;51.502;10.800;2023-04-24T05:51:27;4.70;;;1.97;;
20138;SDS011;10230;51.502;10.800;2023-04-24T05:53:54;2.90;;;1.80;;
20138;SDS011;10230;51.502;10.800;2023-04-24T05:56:20;4.68;;;2.10;;
20138;SDS011;10230;51.502;10.800;2023-04-24T05:58:46;4.23;;;1.60;;
20138;SDS011;10230;51.502;10.800;2023-04-24T06:01:12;3.63;;;1.50;;
20138;SDS011;10230;51.502;10.800;2023-04-24T06:03:40;2.47;;;0.90;;
20138;SDS011;10230;51.502;10.800;2023-04-24T06:06:06;2.13;;;0.80;;
20138;SDS011;10230;51.502;10.800;2023-04-24T06:08:32;1.13;;;0.67;;
20138;SDS011;10230;51.502;10.800;2023-04-24T06:10:58;2.70;;;0.70;;
20138;SDS011;10230;51.502;10.800;2023-04-24T06:13:24;0.87;;;0.67;;
20138;SDS011;10230;51.502;10.800;2023-04-24T06:15:50;4.07;;;0.90;;
20138;SDS011;10230;51.502;10.800;2023-04-24T06:18:16;2.47;;;0.53;;
20138;SDS011;10230;51.502;10.800;2023-04-24T06:20:43;2.43;;;1.23;;
20138;SDS011;10230;51.502;10.800;2023-04-24T06:23:09;1.42;;;0.55;;
20138;SDS011;10230;51.502;10.800;2023-04-24T06:25:35;0.73;;;0.70;;
20138;SDS011;10230;51.502;10.800;2023-04-24T06:28:01;0.53;;;0.40;;
20138;SDS011;10230;51.502;10.800;2023-04-24T06:30:27;0.57;;;0.40;;
20138;SDS011;10230;51.502;10.800;2023-04-24T06:32:53;0.68;;;0.40;;
20138;SDS011;10230;51.502;10.800;2023-04-24T06:35:19;2.03;;;0.50;;
20138;SDS011;10230;51.502;10.800;2023-04-24T06:37:45;1.07;;;0.40;;
20138;SDS011;10230;51.502;10.800;2023-04-24T06:40:12;1.27;;;0.65;;
20138;SDS011;10230;51.502;10.800;2023-04-24T06:42:38;0.87;;;0.30;;
20138;SDS011;10230;51.502;10.800;2023-04-24T06:45:04;0.40;;;0.40;;
20138;SDS011;10230;51.502;10.800;2023-04-24T06:47:31;0.93;;;0.30;;
20138;SDS011;10230;51.502;10.800;2023-04-24T06:49:57;0.50;;;0.40;;
20138;SDS011;10230;51.502;10.800;2023-04-24T06:52:23;0.47;;;0.30;;
20138;SDS011;10230;51.502;10.800;2023-04-24T06:54:49;1.40;;;0.40;;
20138;SDS011;10230;51.502;10.800;2023-04-24T06:57:15;1.50;;;0.32;;
20138;SDS011;10230;51.502;10.800;2023-04-24T06:59:42;0.80;;;0.50;;
20138;SDS011;10230;51.502;10.800;2023-04-24T07:02:08;1.00;;;0.50;;
20138;SDS011;10230;51.502;10.800;2023-04-24T07:04:34;0.77;;;0.30;;
20138;SDS011;10230;51.502;10.800;2023-04-24T07:07:00;2.17;;;0.38;;
20138;SDS011;10230;51.502;10.800;2023-04-24T07:09:26;0.57;;;0.40;;
20138;SDS011;10230;51.502;10.800;2023-04-24T07:11:52;0.65;;;0.43;;
20138;SDS011;10230;51.502;10.800;2023-04-24T07:14:19;3.03;;;0.52;;
20138;SDS011;10230;51.502;10.800;2023-04-24T07:16:45;1.15;;;0.65;;
20138;SDS011;10230;51.502;10.800;2023-04-24T07:19:12;1.00;;;0.40;;
20138;SDS011;10230;51.502;10.800;2023-04-24T07:21:38;0.80;;;0.40;;
20138;SDS011;10230;51.502;10.800;2023-04-24T07:24:05;3.10;;;1.10;;
20138;SDS011;10230;51.502;10.800;2023-04-24T07:26:34;2.93;;;0.40;;
20138;SDS011;10230;51.502;10.800;2023-04-24T07:29:00;1.83;;;0.40;;
20138;SDS011;10230;51.502;10.800;2023-04-24T07:31:26;1.53;;;0.90;;
20138;SDS011;10230;51.502;10.800;2023-04-24T07:33:52;2.88;;;0.57;;
20138;SDS011;10230;51.502;10.800;2023-04-24T07:36:19;0.95;;;0.35;;
20138;SDS011;10230;51.502;10.800;2023-04-24T07:38:45;2.38;;;0.60;;
20138;SDS011;10230;51.502;10.800;2023-04-24T07:41:14;2.42;;;1.20;;
20138;SDS011;10230;51.502;10.800;2023-04-24T07:43:41;0.85;;;0.30;;
20138;SDS011;10230;51.502;10.800;2023-04-24T07:46:07;0.30;;;0.30;;
20138;SDS011;10230;51.502;10.800;2023-04-24T07:48:34;1.55;;;0.40;;
20138;SDS011;10230;51.502;10.800;2023-04-24T07:51:01;0.75;;;0.50;;
20138;SDS011;10230;51.502;10.800;2023-04-24T07:53:27;1.05;;;0.40;;
20138;SDS011;10230;51.502;10.800;2023-04-24T07:55:54;0.28;;;0.28;;
20138;SDS011;10230;51.502;10.800;2023-04-24T07:58:20;0.68;;;0.50;;
20138;SDS011;10230;51.502;10.800;2023-04-24T08:00:47;0.50;;;0.40;;
20138;SDS011;10230;51.502;10.800;2023-04-24T08:03:13;1.30;;;0.60;;
20138;SDS011;10230;51.502;10.800;2023-04-24T08:05:39;1.60;;;0.63;;
20138;SDS011;10230;51.502;10.800;2023-04-24T08:08:08;0.82;;;0.50;;
20138;SDS011;10230;51.502;10.800;2023-04-24T08:10:34;1.05;;;0.40;;
20138;SDS011;10230;51.502;10.800;2023-04-24T08:13:00;1.02;;;0.95;;
20138;SDS011;10230;51.502;10.800;2023-04-24T08:15:27;1.90;;;0.60;;
20138;SDS011;10230;51.502;10.800;2023-04-24T08:17:53;0.63;;;0.43;;
20138;SDS011;10230;51.502;10.800;2023-04-24T08:20:19;3.35;;;0.60;;
20138;SDS011;10230;51.502;10.800;2023-04-24T08:22:45;1.70;;;0.60;;
20138;SDS011;10230;51.502;10.800;2023-04-24T08:25:13;1.02;;;0.70;;
20138;SDS011;10230;51.502;10.800;2023-04-24T08:27:39;0.68;;;0.60;;
20138;SDS011;10230;51.502;10.800;2023-04-24T08:30:06;0.93;;;0.88;;
20138;SDS011;10230;51.502;10.800;2023-04-24T08:32:32;1.00;;;0.80;;
20138;SDS011;10230;51.502;10.800;2023-04-24T08:34:58;0.80;;;0.60;;
20138;SDS011;10230;51.502;10.800;2023-04-24T08:37:25;0.60;;;0.45;;
20138;SDS011;10230;51.502;10.800;2023-04-24T08:39:52;0.57;;;0.50;;
20138;SDS011;10230;51.502;10.800;2023-04-24T08:42:18;3.58;;;0.77;;
20138;SDS011;10230;51.502;10.800;2023-04-24T08:44:45;1.02;;;0.60;;
20138;SDS011;10230;51.502;10.800;2023-04-24T08:47:11;1.48;;;0.60;;
20138;SDS011;10230;51.502;10.800;2023-04-24T08:49:38;0.70;;;0.50;;
20138;SDS011;10230;51.502;10.800;2023-04-24T08:52:07;0.45;;;0.45;;
20138;SDS011;10230;51.502;10.800;2023-04-24T08:54:36;0.98;;;0.63;;
20138;SDS011;10230;51.502;10.800;2023-04-24T08:57:03;2.17;;;0.50;;
20138;SDS011;10230;51.502;10.800;2023-04-24T08:59:30;0.47;;;0.47;;
20138;SDS011;10230;51.502;10.800;2023-04-24T09:01:57;0.73;;;0.50;;
20138;SDS011;10230;51.502;10.800;2023-04-24T09:04:23;0.60;;;0.52;;
20138;SDS011;10230;51.502;10.800;2023-04-24T09:06:56;2.22;;;0.80;;
20138;SDS011;10230;51.502;10.800;2023-04-24T09:09:23;0.50;;;0.50;;
20138;SDS011;10230;51.502;10.800;2023-04-24T09:11:50;1.05;;;0.60;;
20138;SDS011;10230;51.502;10.800;2023-04-24T09:14:16;0.60;;;0.60;;
20138;SDS011;10230;51.502;10.800;2023-04-24T09:16:43;0.73;;;0.47;;
20138;SDS011;10230;51.502;10.800;2023-04-24T09:19:09;1.63;;;0.90;;
20138;SDS011;10230;51.502;10.800;2023-04-24T09:21:35;2.58;;;0.80;;
20138;SDS011;10230;51.502;10.800;2023-04-24T09:24:03;1.30;;;0.77;;
20138;SDS011;10230;51.502;10.800;2023-04-24T09:26:32;1.70;;;0.50;;
20138;SDS011;10230;51.502;10.800;2023-04-24T09:28:58;0.70;;;0.60;;
20138;SDS011;10230;51.502;10.800;2023-04-24T09:31:26;1.00;;;0.73;;
20138;SDS011;10230;51.502;10.800;2023-04-24T09:33:59;0.70;;;0.70;;
20138;SDS011;10230;51.502;10.800;2023-04-24T09:36:33;1.27;;;0.60;;
20138;SDS011;10230;51.502;10.800;2023-04-24T09:39:00;0.63;;;0.50;;
20138;SDS011;10230;51.502;10.800;2023-04-24T09:41:26;1.25;;;0.60;;
20138;SDS011;10230;51.502;10.800;2023-04-24T09:43:54;0.88;;;0.70;;
20138;SDS011;10230;51.502;10.800;2023-04-24T09:46:20;1.58;;;0.60;;
20138;SDS011;10230;51.502;10.800;2023-04-24T09:48:47;0.93;;;0.55;;
20138;SDS011;10230;51.502;10.800;2023-04-24T09:51:13;0.85;;;0.75;;
20138;SDS011;10230;51.502;10.800;2023-04-24T09:53:47;1.60;;;0.60;;
20138;SDS011;10230;51.502;10.800;2023-04-24T09:56:13;2.35;;;0.70;;
20138;SDS011;10230;51.502;10.800;2023-04-24T09:58:39;2.10;;;0.90;;
20138;SDS011;10230;51.502;10.800;2023-04-24T10:01:05;0.70;;;0.70;;
20138;SDS011;10230;51.502;10.800;2023-04-24T10:03:32;0.73;;;0.63;;
20138;SDS011;10230;51.502;10.800;2023-04-24T10:06:02;1.45;;;0.93;;
20138;SDS011;10230;51.502;10.800;2023-04-24T10:08:33;0.70;;;0.70;;
20138;SDS011;10230;51.502;10.800;2023-04-24T10:11:00;1.55;;;0.90;;
20138;SDS011;10230;51.502;10.800;2023-04-24T10:13:26;1.83;;;0.70;;
20138;SDS011;10230;51.502;10.800;2023-04-24T10:15:53;1.45;;;1.13;;
20138;SDS011;10230;51.502;10.800;2023-04-24T10:18:20;0.98;;;0.88;;
20138;SDS011;10230;51.502;10.800;2023-04-24T10:20:46;1.00;;;0.80;;
20138;SDS011;10230;51.502;10.800;2023-04-24T10:23:13;1.45;;;1.08;;
20138;SDS011;10230;51.502;10.800;2023-04-24T10:25:40;1.33;;;0.77;;
20138;SDS011;10230;51.502;10.800;2023-04-24T10:28:06;1.27;;;0.95;;
20138;SDS011;10230;51.502;10.800;2023-04-24T10:30:33;0.88;;;0.73;;
20138;SDS011;10230;51.502;10.800;2023-04-24T10:33:02;1.23;;;0.70;;
20138;SDS011;10230;51.502;10.800;2023-04-24T10:35:32;1.38;;;0.82;;
20138;SDS011;10230;51.502;10.800;2023-04-24T10:38:05;0.88;;;0.80;;
20138;SDS011;10230;51.502;10.800;2023-04-24T10:40:33;1.30;;;0.80;;
20138;SDS011;10230;51.502;10.800;2023-04-24T10:43:01;1.48;;;1.02;;
20138;SDS011;10230;51.502;10.800;2023-04-24T10:45:27;1.45;;;0.90;;
20138;SDS011;10230;51.502;10.800;2023-04-24T10:50:19;0.77;;;0.77;;
20138;SDS011;10230;51.502;10.800;2023-04-24T10:52:46;0.70;;;0.70;;
20138;SDS011;10230;51.502;10.800;2023-04-24T10:55:13;1.00;;;0.90;;
20138;SDS011;10230;51.502;10.800;2023-04-24T10:57:40;1.85;;;1.15;;
20138;SDS011;10230;51.502;10.800;2023-04-24T11:00:26;1.00;;;0.88;;
20138;SDS011;10230;51.502;10.800;2023-04-24T11:02:52;1.83;;;0.80;;
20138;SDS011;10230;51.502;10.800;2023-04-24T11:05:19;1.83;;;0.95;;
20138;SDS011;10230;51.502;10.800;2023-04-24T11:10:32;1.08;;;0.80;;
20138;SDS011;10230;51.502;10.800;2023-04-24T11:12:58;1.13;;;0.93;;
20138;SDS011;10230;51.502;10.800;2023-04-24T11:15:24;1.55;;;1.00;;
20138;SDS011;10230;51.502;10.800;2023-04-24T11:17:51;0.70;;;0.70;;
20138;SDS011;10230;51.502;10.800;2023-04-24T11:20:22;2.28;;;1.00;;
20138;SDS011;10230;51.502;10.800;2023-04-24T11:22:51;0.70;;;0.70;;
20138;SDS011;10230;51.502;10.800;2023-04-24T11:25:18;1.40;;;0.70;;
20138;SDS011;10230;51.502;10.800;2023-04-24T11:27:44;0.80;;;0.70;;
20138;SDS011;10230;51.502;10.800;2023-04-24T11:30:12;1.15;;;0.80;;
20138;SDS011;10230;51.502;10.800;2023-04-24T11:35:05;3.13;;;2.05;;
20138;SDS011;10230;51.502;10.800;2023-04-24T11:37:41;1.23;;;1.10;;
20138;SDS011;10230;51.502;10.800;2023-04-24T11:40:08;1.65;;;1.10;;
20138;SDS011;10230;51.502;10.800;2023-04-24T11:42:35;1.80;;;1.10;;
20138;SDS011;10230;51.502;10.800;2023-04-24T11:45:01;0.98;;;0.80;;
20138;SDS011;10230;51.502;10.800;2023-04-24T11:47:31;1.92;;;0.80;;
20138;SDS011;10230;51.502;10.800;2023-04-24T11:50:01;2.78;;;0.90;;
20138;SDS011;10230;51.502;10.800;2023-04-24T11:52:27;1.80;;;1.48;;
20138;SDS011;10230;51.502;10.800;2023-04-24T11:54:53;1.45;;;0.68;;
20138;SDS011;10230;51.502;10.800;2023-04-24T11:57:20;0.80;;;0.70;;
20138;SDS011;10230;51.502;10.800;2023-04-24T11:59:46;1.40;;;0.70;;
20138;SDS011;10230;51.502;10.800;2023-04-24T12:02:26;1.02;;;0.50;;
20138;SDS011;10230;51.502;10.800;2023-04-24T12:04:55;0.80;;;0.70;;
20138;SDS011;10230;51.502;10.800;2023-04-24T12:07:21;1.30;;;0.70;;
20138;SDS011;10230;51.502;10.800;2023-04-24T12:09:49;0.50;;;0.50;;
20138;SDS011;10230;51.502;10.800;2023-04-24T12:12:16;2.40;;;0.93;;
20138;SDS011;10230;51.502;10.800;2023-04-24T12:14:49;0.77;;;0.60;;
20138;SDS011;10230;51.502;10.800;2023-04-24T12:17:23;1.30;;;0.60;;
20138;SDS011;10230;51.502;10.800;2023-04-24T12:19:49;0.90;;;0.73;;
20138;SDS011;10230;51.502;10.800;2023-04-24T12:22:15;0.70;;;0.70;;
20138;SDS011;10230;51.502;10.800;2023-04-24T12:24:57;0.93;;;0.80;;
20138;SDS011;10230;51.502;10.800;2023-04-24T12:27:24;0.47;;;0.47;;
20138;SDS011;10230;51.502;10.800;2023-04-24T12:29:55;1.27;;;0.93;;
20138;SDS011;10230;51.502;10.800;2023-04-24T12:32:21;0.73;;;0.65;;
20138;SDS011;10230;51.502;10.800;2023-04-24T12:34:49;3.40;;;0.82;;
20138;SDS011;10230;51.502;10.800;2023-04-24T12:37:16;2.65;;;0.73;;
20138;SDS011;10230;51.502;10.800;2023-04-24T12:42:30;1.85;;;0.77;;
20138;SDS011;10230;51.502;10.800;2023-04-24T12:44:59;0.43;;;0.43;;
20138;SDS011;10230;51.502;10.800;2023-04-24T12:47:26;0.25;;;0.25;;
20138;SDS011;10230;51.502;10.800;2023-04-24T12:49:52;0.57;;;0.45;;
20138;SDS011;10230;51.502;10.800;2023-04-24T12:52:20;0.57;;;0.50;;
20138;SDS011;10230;51.502;10.800;2023-04-24T12:54:46;1.00;;;0.47;;
20138;SDS011;10230;51.502;10.800;2023-04-24T12:57:12;0.40;;;0.40;;
20138;SDS011;10230;51.502;10.800;2023-04-24T12:59:38;0.50;;;0.50;;
20138;SDS011;10230;51.502;10.800;2023-04-24T13:02:05;0.25;;;0.25;;
20138;SDS011;10230;51.502;10.800;2023-04-24T13:04:31;1.10;;;0.63;;
20138;SDS011;10230;51.502;10.800;2023-04-24T13:06:57;0.70;;;0.35;;
20138;SDS011;10230;51.502;10.800;2023-04-24T13:09:23;0.32;;;0.25;;
20138;SDS011;10230;51.502;10.800;2023-04-24T13:11:50;0.65;;;0.63;;
20138;SDS011;10230;51.502;10.800;2023-04-24T13:14:16;0.35;;;0.30;;
20138;SDS011;10230;51.502;10.800;2023-04-24T13:16:43;0.43;;;0.40;;
20138;SDS011;10230;51.502;10.800;2023-04-24T13:19:09;0.47;;;0.30;;
20138;SDS011;10230;51.502;10.800;2023-04-24T13:21:35;0.98;;;0.20;;
20138;SDS011;10230;51.502;10.800;2023-04-24T13:24:01;0.80;;;0.50;;
20138;SDS011;10230;51.502;10.800;2023-04-24T13:26:29;0.15;;;0.15;;
20138;SDS011;10230;51.502;10.800;2023-04-24T13:28:55;0.30;;;0.30;;
20138;SDS011;10230;51.502;10.800;2023-04-24T13:31:21;0.45;;;0.30;;
20138;SDS011;10230;51.502;10.800;2023-04-24T13:33:48;0.05;;;0.05;;
20138;SDS011;10230;51.502;10.800;2023-04-24T13:36:14;0.35;;;0.30;;
20138;SDS011;10230;51.502;10.800;2023-04-24T13:38:41;0.15;;;0.10;;
20138;SDS011;10230;51.502;10.800;2023-04-24T13:41:07;0.50;;;0.20;;
20138;SDS011;10230;51.502;10.800;2023-04-24T13:43:33;0.13;;;0.10;;
20138;SDS011;10230;51.502;10.800;2023-04-24T13:46:00;0.35;;;0.20;;
20138;SDS011;10230;51.502;10.800;2023-04-24T13:48:27;0.57;;;0.20;;
20138;SDS011;10230;51.502;10.800;2023-04-24T13:50:53;0.13;;;0.10;;
20138;SDS011;10230;51.502;10.800;2023-04-24T13:53:19;2.28;;;0.20;;
20138;SDS011;10230;51.502;10.800;2023-04-24T13:55:45;0.50;;;0.20;;
20138;SDS011;10230;51.502;10.800;2023-04-24T13:58:12;0.10;;;0.10;;
20138;SDS011;10230;51.502;10.800;2023-04-24T14:00:38;0.10;;;0.10;;
20138;SDS011;10230;51.502;10.800;2023-04-24T14:03:04;0.07;;;0.07;;
20138;SDS011;10230;51.502;10.800;2023-04-24T14:05:30;0.17;;;0.10;;
20138;SDS011;10230;51.502;10.800;2023-04-24T14:07:56;0.10;;;0.10;;
20138;SDS011;10230;51.502;10.800;2023-04-24T14:10:22;0.27;;;0.20;;
20138;SDS011;10230;51.502;10.800;2023-04-24T14:12:48;0.30;;;0.20;;
20138;SDS011;10230;51.502;10.800;2023-04-24T14:15:14;0.10;;;0.10;;
20138;SDS011;10230;51.502;10.800;2023-04-24T14:17:40;0.10;;;0.00;;
20138;SDS011;10230;51.502;10.800;2023-04-24T14:20:06;0.00;;;0.00;;
20138;SDS011;10230;51.502;10.800;2023-04-24T14:22:33;0.10;;;0.10;;
20138;SDS011;10230;51.502;10.800;2023-04-24T14:25:00;0.10;;;0.10;;
20138;SDS011;10230;51.502;10.800;2023-04-24T14:27:26;0.00;;;0.00;;
20138;SDS011;10230;51.502;10.800;2023-04-24T14:29:52;0.00;;;0.00;;
20138;SDS011;10230;51.502;10.800;2023-04-24T14:32:18;0.20;;;0.10;;
20138;SDS011;10230;51.502;10.800;2023-04-24T14:34:44;0.57;;;0.20;;
20138;SDS011;10230;51.502;10.800;2023-04-24T14:37:10;1.33;;;0.30;;
20138;SDS011;10230;51.502;10.800;2023-04-24T14:39:36;0.10;;;0.10;;
20138;SDS011;10230;51.502;10.800;2023-04-24T14:42:02;0.52;;;0.20;;